createdAt,value
2022-10-09T00:01:06.406Z,16.80
2022-10-09T00:03:40.652Z,16.70
2022-10-09T00:06:09.597Z,16.90
2022-10-09T00:08:41.279Z,18.85
2022-10-09T00:11:11.059Z,18.75
2022-10-09T00:13:38.246Z,17.98
2022-10-09T00:16:08.021Z,18.40
2022-10-09T00:18:35.917Z,16.92
2022-10-09T00:21:03.692Z,17.73
2022-10-09T00:23:31.814Z,19.40
2022-10-09T00:26:01.615Z,18.83
2022-10-09T00:28:30.361Z,18.13
2022-10-09T00:30:57.649Z,18.23
2022-10-09T00:33:24.719Z,18.58
2022-10-09T00:35:52.134Z,17.85
2022-10-09T00:38:18.958Z,18.48
2022-10-09T00:40:45.939Z,18.33
2022-10-09T00:43:19.598Z,18.35
2022-10-09T00:45:54.481Z,17.02
2022-10-09T00:48:23.228Z,19.60
2022-10-09T00:50:56.464Z,18.80
2022-10-09T00:53:27.145Z,18.63
2022-10-09T00:55:54.104Z,17.90
2022-10-09T00:58:22.258Z,19.00
2022-10-09T01:00:49.602Z,21.75
2022-10-09T01:03:16.803Z,19.35
2022-10-09T01:06:09.010Z,19.85
2022-10-09T01:08:45.746Z,19.95
2022-10-09T01:11:23.985Z,20.48
2022-10-09T01:14:22.846Z,21.38
2022-10-09T01:17:04.134Z,19.70
2022-10-09T01:19:31.112Z,20.08
2022-10-09T01:22:18.336Z,19.80
2022-10-09T01:24:54.784Z,20.58
2022-10-09T01:27:24.697Z,20.92
2022-10-09T01:29:57.100Z,20.40
2022-10-09T01:32:30.381Z,21.50
2022-10-09T01:34:58.587Z,20.88
2022-10-09T01:37:27.711Z,22.77
2022-10-09T01:39:54.575Z,21.73
2022-10-09T01:42:23.050Z,23.05
2022-10-09T01:44:49.905Z,22.27
2022-10-09T01:47:18.931Z,20.95
2022-10-09T01:50:01.846Z,22.15
2022-10-09T01:52:50.249Z,22.38
2022-10-09T01:55:39.258Z,22.85
2022-10-09T01:58:17.729Z,22.70
2022-10-09T02:01:07.688Z,22.10
2022-10-09T02:03:39.106Z,22.75
2022-10-09T02:06:09.645Z,23.52
2022-10-09T02:08:38.878Z,22.33
2022-10-09T02:11:06.686Z,24.05
2022-10-09T02:13:35.562Z,22.10
2022-10-09T02:16:20.910Z,23.27
2022-10-09T02:19:11.215Z,20.80
2022-10-09T02:21:42.165Z,20.08
2022-10-09T02:24:17.029Z,19.15
2022-10-09T02:26:43.796Z,18.85
2022-10-09T02:29:12.556Z,18.10
2022-10-09T02:31:42.303Z,17.73
2022-10-09T02:34:11.890Z,17.33
2022-10-09T02:36:39.994Z,17.13
2022-10-09T02:39:07.780Z,17.38
2022-10-09T02:41:35.449Z,16.35
2022-10-09T02:44:02.901Z,16.13
2022-10-09T02:46:30.435Z,14.65
2022-10-09T02:48:57.675Z,15.27
2022-10-09T02:51:25.549Z,15.85
2022-10-09T02:53:54.051Z,14.55
2022-10-09T02:56:22.368Z,15.07
2022-10-09T02:58:49.343Z,15.15
2022-10-09T03:01:16.342Z,13.95
2022-10-09T03:03:43.659Z,14.57
2022-10-09T03:06:13.893Z,13.82
2022-10-09T03:08:43.904Z,14.13
2022-10-09T03:11:12.289Z,14.40
2022-10-09T03:13:39.866Z,13.27
2022-10-09T03:16:18.458Z,13.80
2022-10-09T03:18:46.513Z,14.73
2022-10-09T03:21:24.955Z,15.50
2022-10-09T03:23:53.552Z,15.80
2022-10-09T03:26:27.641Z,14.73
2022-10-09T03:28:55.581Z,14.18
2022-10-09T03:31:50.574Z,15.50
2022-10-09T03:34:12.325Z,15.02
2022-10-09T03:36:39.711Z,14.43
2022-10-09T03:39:06.477Z,16.35
2022-10-09T03:41:33.340Z,15.02
2022-10-09T03:44:00.388Z,15.38
2022-10-09T03:46:27.236Z,15.20
2022-10-09T03:48:54.030Z,14.05
2022-10-09T03:51:21.258Z,14.27
2022-10-09T03:53:47.999Z,13.57
2022-10-09T03:56:14.757Z,13.95
2022-10-09T03:58:41.751Z,13.75
2022-10-09T04:01:08.686Z,13.40
2022-10-09T04:03:35.633Z,12.63
2022-10-09T04:06:02.648Z,12.55
2022-10-09T04:08:29.425Z,12.23
2022-10-09T04:10:58.081Z,12.05
2022-10-09T04:13:25.187Z,12.10
2022-10-09T04:15:55.900Z,13.45
2022-10-09T04:18:23.282Z,12.20
2022-10-09T04:20:55.249Z,12.82
2022-10-09T04:23:25.204Z,12.45
2022-10-09T04:25:54.952Z,12.65
2022-10-09T04:28:23.562Z,11.30
2022-10-09T04:30:51.764Z,11.93
2022-10-09T04:33:19.203Z,11.95
2022-10-09T04:35:50.630Z,12.02
2022-10-09T04:38:17.450Z,11.82
2022-10-09T04:40:44.455Z,10.93
2022-10-09T04:43:11.224Z,11.18
2022-10-09T04:45:41.420Z,11.50
2022-10-09T04:48:08.433Z,10.35
2022-10-09T04:50:38.912Z,10.55
2022-10-09T04:53:05.710Z,10.90
2022-10-09T04:55:32.760Z,9.98
2022-10-09T04:57:59.605Z,10.40
2022-10-09T05:00:26.387Z,10.23
2022-10-09T05:02:53.397Z,10.00
2022-10-09T05:05:20.118Z,10.27
2022-10-09T05:07:46.863Z,9.40
2022-10-09T05:10:13.894Z,9.15
2022-10-09T05:12:40.717Z,8.90
2022-10-09T05:15:07.758Z,8.45
2022-10-09T05:17:34.782Z,7.50
2022-10-09T05:20:01.622Z,8.27
2022-10-09T05:22:28.367Z,8.32
2022-10-09T05:24:55.310Z,8.27
2022-10-09T05:27:22.198Z,7.90
2022-10-09T05:29:48.956Z,8.57
2022-10-09T05:32:15.983Z,7.57
2022-10-09T05:34:42.793Z,7.35
2022-10-09T05:37:09.665Z,7.50
2022-10-09T05:39:38.360Z,7.60
2022-10-09T05:42:05.419Z,7.32
2022-10-09T05:44:32.359Z,7.82
2022-10-09T05:46:59.291Z,7.82
2022-10-09T05:49:26.027Z,30.50
2022-10-09T05:51:54.146Z,34.28
2022-10-09T05:54:21.202Z,47.55
2022-10-09T05:56:48.051Z,22.23
2022-10-09T05:59:19.952Z,12.65
2022-10-09T06:01:50.513Z,8.98
2022-10-09T06:04:20.766Z,7.60
2022-10-09T06:06:48.819Z,8.05
2022-10-09T06:09:18.431Z,6.40
2022-10-09T06:11:45.888Z,6.80
2022-10-09T06:14:13.550Z,8.23
2022-10-09T06:16:42.464Z,6.90
2022-10-09T06:19:12.293Z,8.55
2022-10-09T06:21:39.406Z,6.30
2022-10-09T06:24:07.248Z,6.22
2022-10-09T06:26:34.746Z,6.05
2022-10-09T06:29:02.695Z,5.70
2022-10-09T06:31:32.983Z,5.35
2022-10-09T06:34:01.047Z,5.00
2022-10-09T06:36:30.714Z,4.50
2022-10-09T06:39:00.523Z,5.70
2022-10-09T06:41:28.722Z,5.10
2022-10-09T06:43:58.295Z,3.78
2022-10-09T06:46:34.669Z,4.35
2022-10-09T06:49:02.424Z,4.25
2022-10-09T06:51:30.198Z,4.22
2022-10-09T06:53:59.809Z,8.95
2022-10-09T06:56:29.112Z,6.05
2022-10-09T06:58:56.475Z,6.90
2022-10-09T07:01:27.011Z,6.63
2022-10-09T07:03:56.838Z,4.15
2022-10-09T07:06:26.318Z,4.68
2022-10-09T07:08:59.721Z,4.05
2022-10-09T07:11:32.469Z,6.38
2022-10-09T07:14:02.097Z,4.50
2022-10-09T07:16:38.828Z,7.22
2022-10-09T07:19:11.352Z,4.03
2022-10-09T07:21:41.436Z,7.75
2022-10-09T07:24:08.554Z,3.40
2022-10-09T07:26:37.990Z,4.55
2022-10-09T07:29:07.397Z,3.75
2022-10-09T07:34:01.462Z,2.95
2022-10-09T07:36:28.545Z,3.50
2022-10-09T07:38:57.264Z,3.10
2022-10-09T07:41:26.274Z,3.38
2022-10-09T07:43:53.559Z,4.70
2022-10-09T07:46:22.417Z,5.30
2022-10-09T07:48:49.341Z,6.57
2022-10-09T07:51:27.697Z,3.47
2022-10-09T07:53:54.707Z,3.67
2022-10-09T07:56:24.827Z,3.90
2022-10-09T07:58:54.106Z,3.58
2022-10-09T08:03:49.285Z,3.50
2022-10-09T08:06:17.280Z,4.68
2022-10-09T08:08:45.038Z,5.70
2022-10-09T08:11:15.030Z,4.57
2022-10-09T08:13:43.047Z,5.28
2022-10-09T08:16:10.946Z,3.90
2022-10-09T08:18:38.150Z,4.55
2022-10-09T08:21:08.289Z,4.68
2022-10-09T08:23:35.721Z,3.83
2022-10-09T08:26:03.639Z,3.25
2022-10-09T08:28:30.769Z,3.75
2022-10-09T08:30:57.597Z,3.70
2022-10-09T08:33:26.040Z,5.15
2022-10-09T08:35:54.426Z,2.35
2022-10-09T08:38:45.561Z,2.85
2022-10-09T08:41:39.509Z,3.67
2022-10-09T08:44:16.985Z,4.40
2022-10-09T08:47:02.766Z,4.43
2022-10-09T08:49:32.331Z,2.92
2022-10-09T08:52:14.144Z,3.15
2022-10-09T08:54:41.350Z,4.00
2022-10-09T08:57:14.497Z,2.88
2022-10-09T08:59:41.802Z,2.25
2022-10-09T09:02:17.434Z,3.25
2022-10-09T09:05:02.970Z,3.05
2022-10-09T09:07:46.024Z,2.90
2022-10-09T09:10:34.303Z,2.15
2022-10-09T09:13:26.946Z,2.33
2022-10-09T09:16:04.626Z,2.65
2022-10-09T09:18:53.625Z,2.58
2022-10-09T09:21:42.551Z,2.97
2022-10-09T09:24:38.434Z,2.97
2022-10-09T09:27:14.070Z,2.72
2022-10-09T09:29:47.065Z,2.30
2022-10-09T09:32:33.774Z,3.60
2022-10-09T09:35:46.914Z,3.38
2022-10-09T09:38:14.772Z,2.30
2022-10-09T09:40:46.825Z,2.75
2022-10-09T09:43:25.469Z,1.55
2022-10-09T09:45:54.648Z,1.77
2022-10-09T09:51:27.954Z,2.63
2022-10-09T09:54:15.226Z,5.85
2022-10-09T09:59:36.265Z,2.30
2022-10-09T10:02:26.286Z,2.58
2022-10-09T10:04:55.458Z,2.00
2022-10-09T10:07:38.970Z,2.15
2022-10-09T10:10:25.859Z,1.60
2022-10-09T10:15:31.844Z,2.03
2022-10-09T10:18:08.335Z,1.40
2022-10-09T10:21:03.373Z,1.50
2022-10-09T10:23:33.852Z,1.92
2022-10-09T10:26:05.583Z,1.73
2022-10-09T10:28:43.670Z,1.60
2022-10-09T10:31:19.561Z,1.95
2022-10-09T10:33:53.337Z,1.50
2022-10-09T10:36:20.154Z,1.48
2022-10-09T10:38:57.411Z,1.20
2022-10-09T10:41:42.559Z,1.60
2022-10-09T10:44:50.158Z,1.50
2022-10-09T10:47:24.214Z,1.40
2022-10-09T10:49:51.242Z,3.22
2022-10-09T10:52:30.311Z,1.52
2022-10-09T10:55:34.724Z,1.65
2022-10-09T10:58:24.639Z,1.85
2022-10-09T11:01:13.897Z,2.25
2022-10-09T11:03:52.870Z,2.35
2022-10-09T11:06:26.138Z,2.33
2022-10-09T11:09:06.000Z,2.15
2022-10-09T11:11:46.226Z,2.78
2022-10-09T11:14:20.546Z,2.05
2022-10-09T11:16:58.552Z,2.45
2022-10-09T11:19:51.173Z,1.90
2022-10-09T11:22:30.070Z,1.10
2022-10-09T11:25:15.112Z,1.30
2022-10-09T11:27:51.979Z,1.50
2022-10-09T11:30:19.189Z,1.73
2022-10-09T11:33:17.271Z,1.33
2022-10-09T11:35:57.985Z,1.40
2022-10-09T11:38:39.379Z,3.13
2022-10-09T11:41:07.649Z,1.75
2022-10-09T11:43:43.787Z,1.52
2022-10-09T11:46:19.733Z,1.33
2022-10-09T11:49:16.283Z,1.20
2022-10-09T11:51:55.116Z,1.73
2022-10-09T11:54:24.126Z,1.90
2022-10-09T11:56:54.374Z,1.63
2022-10-09T11:59:30.879Z,1.50
2022-10-09T12:02:00.277Z,1.50
2022-10-09T12:07:36.742Z,1.85
2022-10-09T12:10:21.337Z,1.70
2022-10-09T12:13:30.143Z,1.90
2022-10-09T12:15:59.116Z,2.22
2022-10-09T12:21:00.490Z,1.98
2022-10-09T12:23:32.310Z,1.73
2022-10-09T12:26:01.716Z,2.47
2022-10-09T12:28:39.089Z,2.00
2022-10-09T12:31:18.451Z,2.03
2022-10-09T12:33:51.623Z,1.90
2022-10-09T12:36:29.901Z,2.10
2022-10-09T12:38:57.230Z,1.83
2022-10-09T12:41:29.522Z,1.85
2022-10-09T12:43:57.706Z,2.05
2022-10-09T12:46:37.160Z,2.03
2022-10-09T12:49:14.986Z,1.73
2022-10-09T12:51:42.159Z,1.90
2022-10-09T12:54:10.131Z,1.75
2022-10-09T12:56:38.828Z,2.00
2022-10-09T12:59:11.867Z,1.73
2022-10-09T13:01:40.464Z,1.60
2022-10-09T13:04:10.975Z,1.92
2022-10-09T13:06:46.322Z,1.63
2022-10-09T13:09:27.998Z,1.50
2022-10-09T13:12:19.676Z,1.38
2022-10-09T13:14:59.742Z,1.17
2022-10-09T13:17:38.831Z,1.40
2022-10-09T13:20:14.726Z,1.48
2022-10-09T13:22:52.881Z,1.60
2022-10-09T13:25:20.090Z,1.50
2022-10-09T13:27:47.184Z,2.08
2022-10-09T13:30:14.125Z,1.65
2022-10-09T13:32:41.096Z,1.70
2022-10-09T13:35:08.234Z,1.60
2022-10-09T13:37:35.231Z,1.95
2022-10-09T13:40:02.338Z,1.83
2022-10-09T13:42:38.577Z,2.05
2022-10-09T13:45:06.312Z,1.45
2022-10-09T13:47:33.303Z,1.80
2022-10-09T13:50:00.151Z,1.67
2022-10-09T13:52:27.193Z,1.70
2022-10-09T13:54:53.972Z,1.65
2022-10-09T13:57:20.821Z,1.50
2022-10-09T13:59:47.804Z,2.08
2022-10-09T14:02:14.716Z,2.95
2022-10-09T14:04:41.742Z,2.53
2022-10-09T14:07:09.104Z,1.90
2022-10-09T14:09:36.063Z,1.88
2022-10-09T14:12:02.953Z,1.80
2022-10-09T14:14:30.023Z,1.90
2022-10-09T14:16:56.870Z,2.13
2022-10-09T14:19:27.988Z,1.90
2022-10-09T14:21:56.450Z,1.90
2022-10-09T14:24:24.381Z,1.85
2022-10-09T14:26:51.917Z,1.55
2022-10-09T14:29:19.597Z,1.85
2022-10-09T14:31:46.502Z,1.77
2022-10-09T14:34:14.791Z,2.10
2022-10-09T14:36:42.390Z,2.40
2022-10-09T14:39:09.320Z,1.73
2022-10-09T14:41:37.975Z,1.70
2022-10-09T14:44:05.839Z,1.90
2022-10-09T14:46:34.087Z,1.65
2022-10-09T14:49:07.400Z,1.60
2022-10-09T14:51:40.382Z,1.80
2022-10-09T14:54:08.199Z,2.00
2022-10-09T14:56:36.272Z,2.00
2022-10-09T14:59:05.864Z,2.50
2022-10-09T15:01:34.142Z,2.25
2022-10-09T15:04:06.125Z,2.73
2022-10-09T15:06:33.815Z,3.53
2022-10-09T15:09:05.559Z,4.10
2022-10-09T15:11:34.674Z,5.05
2022-10-09T15:14:02.019Z,5.97
2022-10-09T15:16:28.827Z,4.70
2022-10-09T15:18:56.296Z,4.38
2022-10-09T15:21:28.690Z,3.20
2022-10-09T15:23:57.360Z,3.42
2022-10-09T15:28:52.585Z,4.15
2022-10-09T15:31:40.517Z,3.70
2022-10-09T15:34:09.858Z,3.63
2022-10-09T15:36:38.517Z,3.15
2022-10-09T15:39:07.540Z,3.67
2022-10-09T15:41:37.491Z,3.47
2022-10-09T15:44:06.740Z,3.28
2022-10-09T15:46:34.138Z,3.22
2022-10-09T15:49:00.891Z,3.40
2022-10-09T15:51:29.376Z,3.00
2022-10-09T15:53:58.881Z,3.20
2022-10-09T15:58:54.554Z,4.25
2022-10-09T16:01:21.906Z,4.03
2022-10-09T16:03:49.134Z,5.22
2022-10-09T16:06:19.359Z,5.60
2022-10-09T16:08:47.369Z,4.10
2022-10-09T16:11:17.972Z,4.05
2022-10-09T16:13:48.183Z,3.90
2022-10-09T16:16:18.964Z,4.95
2022-10-09T16:18:46.530Z,3.65
2022-10-09T16:21:16.643Z,5.43
2022-10-09T16:23:44.187Z,3.30
2022-10-09T16:26:13.758Z,3.72
2022-10-09T16:28:40.905Z,3.90
2022-10-09T16:31:07.728Z,4.30
2022-10-09T16:33:34.575Z,5.75
2022-10-09T16:36:11.869Z,7.40
2022-10-09T16:38:39.038Z,10.10
2022-10-09T16:41:17.832Z,10.02
2022-10-09T16:43:46.646Z,10.63
2022-10-09T16:46:13.773Z,12.23
2022-10-09T16:48:40.849Z,9.00
2022-10-09T16:51:12.635Z,7.78
2022-10-09T16:53:40.507Z,33.47
2022-10-09T16:56:15.275Z,34.50
2022-10-09T16:58:43.475Z,79.55
2022-10-09T17:01:11.069Z,140.60
2022-10-09T17:03:42.531Z,117.47
2022-10-09T17:06:11.732Z,36.53
2022-10-09T17:08:39.483Z,46.30
2022-10-09T17:11:08.777Z,47.77
2022-10-09T17:13:36.693Z,39.87
2022-10-09T17:16:15.668Z,45.87
2022-10-09T17:18:45.345Z,50.43
2022-10-09T17:21:13.283Z,55.77
2022-10-09T17:23:40.419Z,52.20
2022-10-09T17:26:13.687Z,49.57
2022-10-09T17:28:42.120Z,48.23
2022-10-09T17:31:11.243Z,47.33
2022-10-09T17:33:46.063Z,47.10
2022-10-09T17:36:16.397Z,48.37
2022-10-09T17:38:44.036Z,41.40
2022-10-09T17:41:13.218Z,51.47
2022-10-09T17:43:40.337Z,53.88
2022-10-09T17:46:07.601Z,44.90
2022-10-09T17:48:35.769Z,47.93
2022-10-09T17:51:04.454Z,50.17
2022-10-09T17:53:31.968Z,55.55
2022-10-09T17:56:03.858Z,69.73
2022-10-09T17:58:31.061Z,48.03
2022-10-09T18:00:58.004Z,50.23
2022-10-09T18:03:25.944Z,56.77
2022-10-09T18:05:52.910Z,45.70
2022-10-09T18:08:20.005Z,43.00
2022-10-09T18:10:47.105Z,47.90
2022-10-09T18:13:14.340Z,43.67
2022-10-09T18:15:43.317Z,36.43
2022-10-09T18:18:11.166Z,34.38
2022-10-09T18:20:39.951Z,36.22
2022-10-09T18:23:08.031Z,35.80
2022-10-09T18:25:40.127Z,32.87
2022-10-09T18:28:07.219Z,33.53
2022-10-09T18:30:34.322Z,33.97
2022-10-09T18:33:01.282Z,34.87
2022-10-09T18:35:30.419Z,32.27
2022-10-09T18:37:57.443Z,32.73
2022-10-09T18:40:24.260Z,29.93
2022-10-09T18:42:52.143Z,30.63
2022-10-09T18:45:19.499Z,29.95
2022-10-09T18:47:46.834Z,29.80
2022-10-09T18:50:15.368Z,30.77
2022-10-09T18:52:43.643Z,29.50
2022-10-09T18:55:12.863Z,28.60
2022-10-09T18:57:41.452Z,30.50
2022-10-09T19:00:09.453Z,29.13
2022-10-09T19:02:36.553Z,30.03
2022-10-09T19:05:04.110Z,28.03
2022-10-09T19:07:31.266Z,28.37
2022-10-09T19:09:58.126Z,26.37
2022-10-09T19:12:26.251Z,25.73
2022-10-09T19:14:53.062Z,25.70
2022-10-09T19:17:20.066Z,27.00
2022-10-09T19:19:46.896Z,27.13
2022-10-09T19:22:16.609Z,28.57
2022-10-09T19:24:44.376Z,28.30
2022-10-09T19:27:11.453Z,30.20
2022-10-09T19:29:38.381Z,29.43
2022-10-09T19:32:05.459Z,30.00
2022-10-09T19:34:32.238Z,27.50
2022-10-09T19:36:59.336Z,26.40
2022-10-09T19:39:26.324Z,27.47
2022-10-09T19:41:53.727Z,25.67
2022-10-09T19:44:21.577Z,25.10
2022-10-09T19:46:48.740Z,25.60
2022-10-09T19:49:15.895Z,25.20
2022-10-09T19:51:42.990Z,22.60
2022-10-09T19:54:10.214Z,24.73
2022-10-09T19:56:37.861Z,26.70
2022-10-09T19:59:07.087Z,24.40
2022-10-09T20:01:35.968Z,25.37
2022-10-09T20:04:07.791Z,25.35
2022-10-09T20:06:37.805Z,24.77
2022-10-09T20:09:06.302Z,27.27
2022-10-09T20:11:34.871Z,26.83
2022-10-09T20:14:02.131Z,26.58
2022-10-09T20:16:32.173Z,26.07
2022-10-09T20:19:04.054Z,23.53
2022-10-09T20:21:32.976Z,22.50
2022-10-09T20:24:01.384Z,22.85
2022-10-09T20:26:29.860Z,22.57
2022-10-09T20:28:57.344Z,21.48
2022-10-09T20:31:26.329Z,21.17
2022-10-09T20:36:27.867Z,21.90
2022-10-09T20:38:56.972Z,22.73
2022-10-09T20:41:24.951Z,21.63
2022-10-09T20:43:53.481Z,23.20
2022-10-09T20:46:21.398Z,22.75
2022-10-09T20:48:48.573Z,23.47
2022-10-09T20:51:16.565Z,22.80
2022-10-09T20:53:44.649Z,22.47
2022-10-09T20:56:14.710Z,21.20
2022-10-09T20:58:41.918Z,21.63
2022-10-09T21:01:11.027Z,20.10
2022-10-09T21:03:39.223Z,19.67
2022-10-09T21:06:08.643Z,19.20
2022-10-09T21:08:36.193Z,19.03
2022-10-09T21:11:08.484Z,17.53
2022-10-09T21:13:36.294Z,16.80
2022-10-09T21:16:12.432Z,17.57
2022-10-09T21:18:39.843Z,15.40
2022-10-09T21:21:09.983Z,13.50
2022-10-09T21:23:37.335Z,14.83
2022-10-09T21:26:04.263Z,14.87
2022-10-09T21:28:31.961Z,14.90
2022-10-09T21:30:58.730Z,15.30
2022-10-09T21:33:25.781Z,16.17
2022-10-09T21:35:55.417Z,15.00
2022-10-09T21:38:23.810Z,14.23
2022-10-09T21:40:50.880Z,14.80
2022-10-09T21:43:18.673Z,13.63
2022-10-09T21:45:49.516Z,14.93
2022-10-09T21:48:17.063Z,13.20
2022-10-09T21:50:45.085Z,13.10
2022-10-09T21:53:12.903Z,13.77
2022-10-09T21:55:39.867Z,12.43
2022-10-09T21:58:07.225Z,12.80
2022-10-09T22:00:34.303Z,12.67
2022-10-09T22:03:01.102Z,12.53
2022-10-09T22:05:28.021Z,12.13
2022-10-09T22:07:55.065Z,12.07
2022-10-09T22:10:21.899Z,13.03
2022-10-09T22:12:49.039Z,11.37
2022-10-09T22:15:16.294Z,11.63
2022-10-09T22:17:43.053Z,11.20
2022-10-09T22:20:10.141Z,12.40
2022-10-09T22:22:36.966Z,11.40
2022-10-09T22:25:04.602Z,10.57
2022-10-09T22:27:31.370Z,10.53
2022-10-09T22:29:58.380Z,11.63
2022-10-09T22:32:25.170Z,10.40
2022-10-09T22:34:52.306Z,10.47
2022-10-09T22:37:19.150Z,10.17
2022-10-09T22:39:46.296Z,10.40
2022-10-09T22:42:13.217Z,10.57
2022-10-09T22:44:40.223Z,11.17
2022-10-09T22:47:06.991Z,10.53
2022-10-09T22:49:34.096Z,11.23
2022-10-09T22:52:00.877Z,11.07
2022-10-09T22:54:27.913Z,10.73
2022-10-09T22:56:54.826Z,10.80
2022-10-09T22:59:21.892Z,10.07
2022-10-09T23:01:53.450Z,11.07
2022-10-09T23:04:22.082Z,11.10
2022-10-09T23:06:55.519Z,11.73
2022-10-09T23:09:26.287Z,10.90
2022-10-09T23:11:53.415Z,10.13
2022-10-09T23:14:20.508Z,9.93
2022-10-09T23:16:47.642Z,10.30
2022-10-09T23:19:15.290Z,9.53
2022-10-09T23:21:43.308Z,11.37
2022-10-09T23:24:12.577Z,11.25
2022-10-09T23:26:39.315Z,10.85
2022-10-09T23:29:14.512Z,10.53
2022-10-09T23:31:41.624Z,9.53
2022-10-09T23:34:08.668Z,10.47
2022-10-09T23:36:35.642Z,9.83
2022-10-09T23:39:04.338Z,10.37
2022-10-09T23:41:31.108Z,9.52
2022-10-09T23:43:58.287Z,11.07
2022-10-09T23:46:28.651Z,10.33
2022-10-09T23:48:56.127Z,10.30
2022-10-09T23:51:24.599Z,9.90
2022-10-09T23:53:51.621Z,10.02
2022-10-09T23:56:24.531Z,10.00
2022-10-09T23:58:52.739Z,10.73
